createdAt,value
2022-10-02T00:00:36.182Z,100370.91
2022-10-02T00:05:45.792Z,100366.06
2022-10-02T00:10:51.956Z,100374.81
2022-10-02T00:15:54.970Z,100372.72
2022-10-02T00:21:06.161Z,100378.91
2022-10-02T00:26:26.580Z,100380.78
2022-10-02T00:31:52.939Z,100386.63
2022-10-02T00:37:08.403Z,100382.31
2022-10-02T00:42:42.091Z,100380.84
2022-10-02T00:47:50.431Z,100391.25
2022-10-02T00:53:04.858Z,100386.28
2022-10-02T00:58:40.952Z,100383.56
2022-10-02T01:03:47.307Z,100385.88
2022-10-02T01:08:48.767Z,100388.16
2022-10-02T01:13:51.251Z,100375.31
2022-10-02T01:18:52.971Z,100367.38
2022-10-02T01:24:02.161Z,100373.03
2022-10-02T01:29:04.613Z,100376.38
2022-10-02T01:34:06.702Z,100389.69
2022-10-02T01:39:08.179Z,100409.47
2022-10-02T01:44:11.067Z,100412.13
2022-10-02T01:49:39.478Z,100393.00
2022-10-02T01:54:46.331Z,100396.78
2022-10-02T02:00:05.218Z,100396.75
2022-10-02T02:05:17.788Z,100413.84
2022-10-02T02:10:26.489Z,100403.41
2022-10-02T02:15:54.714Z,100398.63
2022-10-02T02:21:01.323Z,100408.41
2022-10-02T02:26:08.624Z,100406.78
2022-10-02T02:31:12.674Z,100391.75
2022-10-02T02:36:19.205Z,100401.31
2022-10-02T02:41:26.353Z,100398.22
2022-10-02T02:46:34.591Z,100400.94
2022-10-02T02:51:42.615Z,100406.38
2022-10-02T02:56:46.780Z,100410.13
2022-10-02T03:01:48.212Z,100399.31
2022-10-02T03:06:55.144Z,100412.44
2022-10-02T03:12:14.853Z,100408.66
2022-10-02T03:17:35.915Z,100393.66
2022-10-02T03:22:50.707Z,100376.59
2022-10-02T03:28:14.577Z,100367.66
2022-10-02T03:33:17.431Z,100373.88
2022-10-02T03:38:21.154Z,100377.00
2022-10-02T03:43:24.324Z,100392.41
2022-10-02T03:48:25.703Z,100409.91
2022-10-02T03:53:31.263Z,100412.81
2022-10-02T03:58:34.064Z,100416.38
2022-10-02T04:03:39.977Z,100408.06
2022-10-02T04:08:50.940Z,100405.56
2022-10-02T04:14:20.734Z,100388.44
2022-10-02T04:19:47.323Z,100398.69
2022-10-02T04:24:53.411Z,100402.41
2022-10-02T04:30:14.659Z,100407.00
2022-10-02T04:35:33.626Z,100402.22
2022-10-02T04:40:51.483Z,100404.72
2022-10-02T04:46:02.061Z,100410.16
2022-10-02T04:51:27.298Z,100402.66
2022-10-02T04:57:06.463Z,100402.88
2022-10-02T05:02:28.145Z,100407.88
2022-10-02T05:08:08.358Z,100395.81
2022-10-02T05:13:37.357Z,100394.75
2022-10-02T05:18:57.132Z,100399.09
2022-10-02T05:24:40.051Z,100404.53
2022-10-02T05:30:05.759Z,100403.50
2022-10-02T05:35:34.632Z,100399.97
2022-10-02T05:41:08.136Z,100404.94
2022-10-02T05:46:25.723Z,100420.19
2022-10-02T05:51:40.275Z,100416.84
2022-10-02T05:56:51.387Z,100421.84
2022-10-02T06:01:57.296Z,100428.09
2022-10-02T06:07:15.417Z,100421.38
2022-10-02T06:12:30.558Z,100425.97
2022-10-02T06:17:45.726Z,100413.28
2022-10-02T06:22:54.304Z,100409.53
2022-10-02T06:28:02.812Z,100415.34
2022-10-02T06:33:23.352Z,100428.06
2022-10-02T06:39:01.150Z,100427.84
2022-10-02T06:44:33.133Z,100431.81
2022-10-02T06:50:03.197Z,100443.09
2022-10-02T06:55:31.946Z,100444.94
2022-10-02T07:00:45.695Z,100439.31
2022-10-02T07:06:08.195Z,100436.81
2022-10-02T07:11:21.482Z,100457.44
2022-10-02T07:16:41.882Z,100457.84
2022-10-02T07:22:00.424Z,100449.72
2022-10-02T07:27:19.676Z,100444.31
2022-10-02T07:32:42.560Z,100445.56
2022-10-02T07:38:15.103Z,100453.47
2022-10-02T07:43:24.178Z,100466.41
2022-10-02T07:48:40.556Z,100468.91
2022-10-02T07:53:51.696Z,100467.88
2022-10-02T07:59:00.068Z,100472.00
2022-10-02T08:04:05.933Z,100474.13
2022-10-02T08:09:24.322Z,100477.03
2022-10-02T08:14:41.256Z,100477.47
2022-10-02T08:19:49.696Z,100488.53
2022-10-02T08:24:57.515Z,100478.97
2022-10-02T08:30:03.898Z,100478.34
2022-10-02T08:35:12.523Z,100468.16
2022-10-02T08:40:35.445Z,100471.88
2022-10-02T08:46:02.347Z,100465.84
2022-10-02T08:51:21.400Z,100473.19
2022-10-02T08:56:48.322Z,100491.94
2022-10-02T09:02:41.471Z,100482.59
2022-10-02T09:08:07.913Z,100481.13
2022-10-02T09:13:33.615Z,100472.13
2022-10-02T09:18:51.148Z,100472.38
2022-10-02T09:24:20.886Z,100479.44
2022-10-02T09:29:55.326Z,100479.88
2022-10-02T09:35:09.064Z,100484.47
2022-10-02T09:41:04.351Z,100466.53
2022-10-02T09:46:46.683Z,100461.28
2022-10-02T09:52:10.642Z,100465.06
2022-10-02T09:57:51.526Z,100474.25
2022-10-02T10:03:22.619Z,100466.94
2022-10-02T10:08:54.296Z,100464.44
2022-10-02T10:14:29.161Z,100461.91
2022-10-02T10:19:55.502Z,100466.28
2022-10-02T10:25:28.092Z,100471.91
2022-10-02T10:31:03.748Z,100465.19
2022-10-02T10:36:46.618Z,100482.91
2022-10-02T10:42:50.178Z,100486.47
2022-10-02T10:48:25.320Z,100480.19
2022-10-02T10:53:46.922Z,100485.19
2022-10-02T10:59:24.401Z,100495.44
2022-10-02T11:04:41.759Z,100491.69
2022-10-02T11:09:55.706Z,100504.00
2022-10-02T11:15:02.763Z,100505.44
2022-10-02T11:20:23.000Z,100492.50
2022-10-02T11:26:06.100Z,100501.72
2022-10-02T11:31:32.940Z,100501.03
2022-10-02T11:36:42.618Z,100507.06
2022-10-02T11:42:05.778Z,100518.81
2022-10-02T11:47:31.724Z,100525.69
2022-10-02T11:52:57.246Z,100508.38
2022-10-02T11:58:19.562Z,100517.16
2022-10-02T12:03:36.575Z,100515.22
2022-10-02T12:09:00.355Z,100508.38
2022-10-02T12:14:20.402Z,100512.75
2022-10-02T12:19:39.615Z,100511.28
2022-10-02T12:25:27.833Z,100504.56
2022-10-02T12:30:43.843Z,100509.94
2022-10-02T12:35:45.145Z,100508.16
2022-10-02T12:40:46.480Z,100494.53
2022-10-02T12:45:50.892Z,100500.63
2022-10-02T12:51:28.942Z,100488.53
2022-10-02T12:56:42.391Z,100500.88
2022-10-02T13:02:17.198Z,100497.56
2022-10-02T13:07:33.666Z,100494.94
2022-10-02T13:12:40.919Z,100493.50
2022-10-02T13:17:58.729Z,100489.78
2022-10-02T13:23:07.507Z,100497.47
2022-10-02T13:28:27.681Z,100506.50
2022-10-02T13:33:41.028Z,100507.31
2022-10-02T13:39:00.225Z,100514.31
2022-10-02T13:44:12.336Z,100514.56
2022-10-02T13:49:54.159Z,100521.19
2022-10-02T13:55:37.205Z,100521.56
2022-10-02T14:00:46.306Z,100517.72
2022-10-02T14:06:00.683Z,100519.34
2022-10-02T14:11:43.367Z,100519.28
2022-10-02T14:17:32.037Z,100516.63
2022-10-02T14:23:03.101Z,100514.53
2022-10-02T14:28:12.904Z,100527.22
2022-10-02T14:33:43.895Z,100527.06
2022-10-02T14:38:53.042Z,100520.72
2022-10-02T14:44:21.030Z,100527.41
2022-10-02T14:49:43.436Z,100532.38
2022-10-02T14:55:18.792Z,100531.31
2022-10-02T15:00:22.032Z,100542.25
2022-10-02T15:05:50.813Z,100539.78
2022-10-02T15:10:52.752Z,100538.81
2022-10-02T15:16:29.165Z,100541.34
2022-10-02T15:21:40.458Z,100536.94
2022-10-02T15:27:15.512Z,100535.84
2022-10-02T15:32:20.022Z,100540.31
2022-10-02T15:37:43.342Z,100544.56
2022-10-02T15:42:57.504Z,100552.72
2022-10-02T15:48:14.772Z,100550.88
2022-10-02T15:53:36.723Z,100553.75
2022-10-02T15:59:09.991Z,100556.06
2022-10-02T16:04:37.872Z,100555.28
2022-10-02T16:09:48.002Z,100561.56
2022-10-02T16:15:11.256Z,100562.00
2022-10-02T16:20:27.013Z,100566.19
2022-10-02T16:26:06.366Z,100570.16
2022-10-02T16:31:31.784Z,100577.44
2022-10-02T16:36:42.056Z,100587.03
2022-10-02T16:42:01.934Z,100606.72
2022-10-02T16:47:18.072Z,100610.03
2022-10-02T16:52:29.586Z,100608.38
2022-10-02T16:57:39.823Z,100611.75
2022-10-02T17:02:51.687Z,100613.03
2022-10-02T17:08:01.872Z,100624.69
2022-10-02T17:13:09.461Z,100629.69
2022-10-02T17:18:24.049Z,100656.63
2022-10-02T17:23:33.904Z,100655.38
2022-10-02T17:28:53.442Z,100669.97
2022-10-02T17:33:58.038Z,100681.22
2022-10-02T17:39:04.033Z,100686.22
2022-10-02T17:44:23.383Z,100695.56
2022-10-02T17:49:58.845Z,100699.72
2022-10-02T17:55:49.852Z,100718.63
2022-10-02T18:01:06.110Z,100725.56
2022-10-02T18:06:19.402Z,100742.50
2022-10-02T18:11:42.491Z,100746.19
2022-10-02T18:16:52.895Z,100764.94
2022-10-02T18:22:05.258Z,100773.00
2022-10-02T18:27:46.971Z,100781.63
2022-10-02T18:33:25.162Z,100780.44
2022-10-02T18:38:41.790Z,100788.78
2022-10-02T18:43:57.161Z,100788.53
2022-10-02T18:49:10.511Z,100802.00
2022-10-02T18:54:36.735Z,100809.25
2022-10-02T19:00:07.240Z,100808.97
2022-10-02T19:05:36.844Z,100812.09
2022-10-02T19:10:42.821Z,100823.34
2022-10-02T19:15:46.288Z,100833.78
2022-10-02T19:21:13.771Z,100833.66
2022-10-02T19:26:27.878Z,100836.66
2022-10-02T19:31:31.318Z,100848.13
2022-10-02T19:36:41.777Z,100853.06
2022-10-02T19:41:44.398Z,100856.81
2022-10-02T19:46:52.975Z,100873.00
2022-10-02T19:51:54.903Z,100885.69
2022-10-02T19:57:07.172Z,100882.41
2022-10-02T20:02:21.750Z,100889.75
2022-10-02T20:07:26.619Z,100893.06
2022-10-02T20:12:36.022Z,100895.75
2022-10-02T20:17:38.020Z,100908.38
2022-10-02T20:22:52.936Z,100901.81
2022-10-02T20:28:00.435Z,100904.28
2022-10-02T20:33:11.296Z,100918.72
2022-10-02T20:38:39.092Z,100920.03
2022-10-02T20:43:46.607Z,100926.66
2022-10-02T20:49:15.721Z,100936.31
2022-10-02T20:54:28.559Z,100950.84
2022-10-02T21:00:08.105Z,100955.06
2022-10-02T21:05:34.486Z,100963.75
2022-10-02T21:10:54.706Z,100954.28
2022-10-02T21:16:17.806Z,100956.06
2022-10-02T21:21:37.713Z,100960.31
2022-10-02T21:27:03.953Z,100980.81
2022-10-02T21:32:28.731Z,100980.81
2022-10-02T21:37:50.181Z,100984.75
2022-10-02T21:43:04.892Z,100977.84
2022-10-02T21:48:40.200Z,100995.84
2022-10-02T21:54:19.407Z,100997.72
2022-10-02T21:59:41.475Z,101018.88
2022-10-02T22:04:55.226Z,101029.06
2022-10-02T22:10:12.766Z,101036.69
2022-10-02T22:15:21.858Z,101038.44
2022-10-02T22:20:51.456Z,101052.16
2022-10-02T22:26:12.459Z,101057.28
2022-10-02T22:31:43.340Z,101060.59
2022-10-02T22:37:03.668Z,101074.84
2022-10-02T22:42:12.691Z,101080.03
2022-10-02T22:47:26.989Z,101089.53
2022-10-02T22:52:31.946Z,101090.16
2022-10-02T22:57:37.853Z,101098.88
2022-10-02T23:03:01.862Z,101090.78
2022-10-02T23:08:46.120Z,101089.59
2022-10-02T23:13:56.946Z,101093.34
2022-10-02T23:19:08.966Z,101096.84
2022-10-02T23:24:36.739Z,101101.75
2022-10-02T23:29:47.048Z,101109.78
2022-10-02T23:35:01.090Z,101108.03
2022-10-02T23:40:05.206Z,101117.47
2022-10-02T23:45:21.154Z,101122.63
2022-10-02T23:50:39.297Z,101121.69
2022-10-02T23:55:55.339Z,101132.94
